Arnolds Park, Iowa
Current Conditions -  °F | °C
As of 4:53 PM on Wednesday 26 Nov 2014 (Local Time) from KSPW Reporting Station
Overcast Overcast  
Wind Chill: -16°   Ceiling: 1200
Heat Index: -7°   Visibility: 10mi
Dew Point: -10°   Wind: 18mph
Humidity: 81%   Direction: 340°NNW
Pressure: 30.28"   Gusts: NA
Location:  43.37°N, 95.12°W
Report Text: KSPW 262253Z AUTO 34016KT 10SM OVC012 M07/M10 A3028 RMK AO2 SLP275 T10721100 TSNO
Loading
Personal Weather Stations






























Interactive Weather Map New forecast layout! Learn more

10-Day Weather Forecast

Advertisements
Track Severe Weather on mobile